sensor_id;sensor_type;location;lat;lon;timestamp;temperature;humidity
20827;DHT22;10574;52.508;13.236;2023-05-27T00:02:11;11.90;99.90
20827;DHT22;10574;52.508;13.236;2023-05-27T00:04:39;11.90;99.90
20827;DHT22;10574;52.508;13.236;2023-05-27T00:07:07;11.90;99.90
20827;DHT22;10574;52.508;13.236;2023-05-27T00:09:34;11.80;99.90
20827;DHT22;10574;52.508;13.236;2023-05-27T00:12:02;11.70;99.90
20827;DHT22;10574;52.508;13.236;2023-05-27T00:14:30;11.70;99.90
20827;DHT22;10574;52.508;13.236;2023-05-27T00:16:58;11.70;99.90
20827;DHT22;10574;52.508;13.236;2023-05-27T00:19:28;11.60;99.90
20827;DHT22;10574;52.508;13.236;2023-05-27T00:21:59;11.60;99.90
20827;DHT22;10574;52.508;13.236;2023-05-27T00:24:26;11.50;99.90
20827;DHT22;10574;52.508;13.236;2023-05-27T00:26:54;11.50;99.90
20827;DHT22;10574;52.508;13.236;2023-05-27T00:29:22;11.40;99.90
20827;DHT22;10574;52.508;13.236;2023-05-27T00:31:51;11.40;99.90
20827;DHT22;10574;52.508;13.236;2023-05-27T00:34:18;11.40;99.90
20827;DHT22;10574;52.508;13.236;2023-05-27T00:36:46;11.30;99.90
20827;DHT22;10574;52.508;13.236;2023-05-27T00:39:14;11.30;99.90
20827;DHT22;10574;52.508;13.236;2023-05-27T00:41:47;11.20;99.90
20827;DHT22;10574;52.508;13.236;2023-05-27T00:44:13;11.20;99.90
20827;DHT22;10574;52.508;13.236;2023-05-27T00:46:41;11.20;99.90
20827;DHT22;10574;52.508;13.236;2023-05-27T00:49:09;11.10;99.90
20827;DHT22;10574;52.508;13.236;2023-05-27T00:51:36;11.10;99.90
20827;DHT22;10574;52.508;13.236;2023-05-27T00:54:04;11.00;99.90
20827;DHT22;10574;52.508;13.236;2023-05-27T00:56:33;11.00;99.90
20827;DHT22;10574;52.508;13.236;2023-05-27T00:59:01;11.00;99.90
20827;DHT22;10574;52.508;13.236;2023-05-27T01:01:28;10.90;99.90
20827;DHT22;10574;52.508;13.236;2023-05-27T01:03:57;10.90;99.90
20827;DHT22;10574;52.508;13.236;2023-05-27T01:14:44;10.80;99.90
20827;DHT22;10574;52.508;13.236;2023-05-27T01:17:13;10.70;99.90
20827;DHT22;10574;52.508;13.236;2023-05-27T01:19:44;10.60;99.90
20827;DHT22;10574;52.508;13.236;2023-05-27T01:22:13;10.60;99.90
20827;DHT22;10574;52.508;13.236;2023-05-27T01:24:42;10.60;99.90
20827;DHT22;10574;52.508;13.236;2023-05-27T01:27:10;10.60;99.90
20827;DHT22;10574;52.508;13.236;2023-05-27T01:29:42;10.60;99.90
20827;DHT22;10574;52.508;13.236;2023-05-27T01:32:21;10.60;99.90
20827;DHT22;10574;52.508;13.236;2023-05-27T01:34:59;10.60;99.90
20827;DHT22;10574;52.508;13.236;2023-05-27T01:37:29;10.50;99.90
20827;DHT22;10574;52.508;13.236;2023-05-27T01:39:57;10.50;99.90
20827;DHT22;10574;52.508;13.236;2023-05-27T01:42:26;10.50;99.90
20827;DHT22;10574;52.508;13.236;2023-05-27T01:44:54;10.50;99.90
20827;DHT22;10574;52.508;13.236;2023-05-27T01:47:23;10.50;99.90
20827;DHT22;10574;52.508;13.236;2023-05-27T01:49:51;10.40;99.90
20827;DHT22;10574;52.508;13.236;2023-05-27T01:52:19;10.40;99.90
20827;DHT22;10574;52.508;13.236;2023-05-27T01:54:47;10.40;99.90
20827;DHT22;10574;52.508;13.236;2023-05-27T01:57:16;10.40;99.90
20827;DHT22;10574;52.508;13.236;2023-05-27T01:59:44;10.30;99.90
20827;DHT22;10574;52.508;13.236;2023-05-27T02:02:11;10.40;99.90
20827;DHT22;10574;52.508;13.236;2023-05-27T02:04:39;10.30;99.90
20827;DHT22;10574;52.508;13.236;2023-05-27T02:07:07;10.30;99.90
20827;DHT22;10574;52.508;13.236;2023-05-27T02:09:36;10.30;99.90
20827;DHT22;10574;52.508;13.236;2023-05-27T02:12:05;10.30;99.90
20827;DHT22;10574;52.508;13.236;2023-05-27T02:14:32;10.30;99.90
20827;DHT22;10574;52.508;13.236;2023-05-27T02:17:02;10.20;99.90
20827;DHT22;10574;52.508;13.236;2023-05-27T02:19:30;10.20;99.90
20827;DHT22;10574;52.508;13.236;2023-05-27T02:21:58;10.10;99.90
20827;DHT22;10574;52.508;13.236;2023-05-27T02:24:26;10.10;99.90
20827;DHT22;10574;52.508;13.236;2023-05-27T02:26:54;10.00;99.90
20827;DHT22;10574;52.508;13.236;2023-05-27T02:29:21;10.00;99.90
20827;DHT22;10574;52.508;13.236;2023-05-27T02:31:49;10.00;99.90
20827;DHT22;10574;52.508;13.236;2023-05-27T02:34:18;10.00;99.90
20827;DHT22;10574;52.508;13.236;2023-05-27T02:36:45;10.00;99.90
20827;DHT22;10574;52.508;13.236;2023-05-27T02:39:13;10.00;99.90
20827;DHT22;10574;52.508;13.236;2023-05-27T02:41:41;10.00;99.90
20827;DHT22;10574;52.508;13.236;2023-05-27T02:44:09;10.00;99.90
20827;DHT22;10574;52.508;13.236;2023-05-27T02:46:37;10.00;99.90
20827;DHT22;10574;52.508;13.236;2023-05-27T02:49:05;9.90;99.90
20827;DHT22;10574;52.508;13.236;2023-05-27T02:51:34;9.90;99.90
20827;DHT22;10574;52.508;13.236;2023-05-27T02:54:01;9.90;99.90
20827;DHT22;10574;52.508;13.236;2023-05-27T02:56:29;9.80;99.90
20827;DHT22;10574;52.508;13.236;2023-05-27T02:58:57;9.80;99.90
20827;DHT22;10574;52.508;13.236;2023-05-27T03:01:25;9.80;99.90
20827;DHT22;10574;52.508;13.236;2023-05-27T03:03:53;9.70;99.90
20827;DHT22;10574;52.508;13.236;2023-05-27T03:06:21;9.60;99.90
20827;DHT22;10574;52.508;13.236;2023-05-27T03:08:49;9.70;99.90
20827;DHT22;10574;52.508;13.236;2023-05-27T03:11:17;9.70;99.90
20827;DHT22;10574;52.508;13.236;2023-05-27T03:13:45;9.70;99.90
20827;DHT22;10574;52.508;13.236;2023-05-27T03:16:13;9.60;99.90
20827;DHT22;10574;52.508;13.236;2023-05-27T03:18:41;9.60;99.90
20827;DHT22;10574;52.508;13.236;2023-05-27T03:21:08;9.60;99.90
20827;DHT22;10574;52.508;13.236;2023-05-27T03:23:37;9.60;99.90
20827;DHT22;10574;52.508;13.236;2023-05-27T03:26:05;9.60;99.90
20827;DHT22;10574;52.508;13.236;2023-05-27T03:28:32;9.60;99.90
20827;DHT22;10574;52.508;13.236;2023-05-27T03:31:00;9.50;99.90
20827;DHT22;10574;52.508;13.236;2023-05-27T03:33:30;9.50;99.90
20827;DHT22;10574;52.508;13.236;2023-05-27T03:35:57;9.60;99.90
20827;DHT22;10574;52.508;13.236;2023-05-27T03:38:25;9.60;99.90
20827;DHT22;10574;52.508;13.236;2023-05-27T03:40:53;9.70;99.90
20827;DHT22;10574;52.508;13.236;2023-05-27T03:43:21;9.80;99.90
20827;DHT22;10574;52.508;13.236;2023-05-27T03:45:49;9.80;99.90
20827;DHT22;10574;52.508;13.236;2023-05-27T03:48:17;9.80;99.90
20827;DHT22;10574;52.508;13.236;2023-05-27T03:50:44;9.90;99.90
20827;DHT22;10574;52.508;13.236;2023-05-27T03:53:14;9.90;99.90
20827;DHT22;10574;52.508;13.236;2023-05-27T03:55:42;10.00;99.90
20827;DHT22;10574;52.508;13.236;2023-05-27T03:58:10;10.00;99.90
20827;DHT22;10574;52.508;13.236;2023-05-27T04:00:40;10.10;99.90
20827;DHT22;10574;52.508;13.236;2023-05-27T04:03:08;10.10;99.90
20827;DHT22;10574;52.508;13.236;2023-05-27T04:05:36;10.20;99.90
20827;DHT22;10574;52.508;13.236;2023-05-27T04:08:04;10.30;99.90
20827;DHT22;10574;52.508;13.236;2023-05-27T04:10:32;10.30;99.90
20827;DHT22;10574;52.508;13.236;2023-05-27T04:13:00;10.40;99.90
20827;DHT22;10574;52.508;13.236;2023-05-27T04:15:28;10.40;99.90
20827;DHT22;10574;52.508;13.236;2023-05-27T04:17:56;10.60;99.90
20827;DHT22;10574;52.508;13.236;2023-05-27T04:20:26;10.70;99.90
20827;DHT22;10574;52.508;13.236;2023-05-27T04:22:53;10.80;99.90
20827;DHT22;10574;52.508;13.236;2023-05-27T04:25:22;10.90;99.90
20827;DHT22;10574;52.508;13.236;2023-05-27T04:27:50;10.90;99.90
20827;DHT22;10574;52.508;13.236;2023-05-27T04:30:18;11.00;99.90
20827;DHT22;10574;52.508;13.236;2023-05-27T04:32:47;11.20;99.90
20827;DHT22;10574;52.508;13.236;2023-05-27T04:35:15;11.50;99.90
20827;DHT22;10574;52.508;13.236;2023-05-27T04:37:44;11.60;99.90
20827;DHT22;10574;52.508;13.236;2023-05-27T04:40:14;11.70;99.90
20827;DHT22;10574;52.508;13.236;2023-05-27T04:42:42;11.70;99.90
20827;DHT22;10574;52.508;13.236;2023-05-27T04:45:10;11.80;99.90
20827;DHT22;10574;52.508;13.236;2023-05-27T04:47:41;11.90;99.90
20827;DHT22;10574;52.508;13.236;2023-05-27T04:50:10;12.00;99.90
20827;DHT22;10574;52.508;13.236;2023-05-27T04:52:38;12.10;99.90
20827;DHT22;10574;52.508;13.236;2023-05-27T04:55:09;12.00;99.90
20827;DHT22;10574;52.508;13.236;2023-05-27T04:57:39;11.90;99.90
20827;DHT22;10574;52.508;13.236;2023-05-27T05:00:08;12.00;99.90
20827;DHT22;10574;52.508;13.236;2023-05-27T05:02:38;12.20;99.90
20827;DHT22;10574;52.508;13.236;2023-05-27T05:05:08;12.60;99.90
20827;DHT22;10574;52.508;13.236;2023-05-27T05:07:36;12.80;99.90
20827;DHT22;10574;52.508;13.236;2023-05-27T05:10:07;13.20;99.90
20827;DHT22;10574;52.508;13.236;2023-05-27T05:12:55;13.50;99.90
20827;DHT22;10574;52.508;13.236;2023-05-27T05:15:24;13.50;99.90
20827;DHT22;10574;52.508;13.236;2023-05-27T05:17:52;13.50;99.90
20827;DHT22;10574;52.508;13.236;2023-05-27T05:20:20;13.40;99.90
20827;DHT22;10574;52.508;13.236;2023-05-27T05:22:48;13.70;99.90
20827;DHT22;10574;52.508;13.236;2023-05-27T05:25:16;13.90;99.90
20827;DHT22;10574;52.508;13.236;2023-05-27T05:27:44;14.20;99.90
20827;DHT22;10574;52.508;13.236;2023-05-27T05:30:12;14.10;99.90
20827;DHT22;10574;52.508;13.236;2023-05-27T05:32:40;14.10;99.90
20827;DHT22;10574;52.508;13.236;2023-05-27T05:35:08;14.20;99.90
20827;DHT22;10574;52.508;13.236;2023-05-27T05:37:36;14.10;99.90
20827;DHT22;10574;52.508;13.236;2023-05-27T05:40:04;14.10;99.90
20827;DHT22;10574;52.508;13.236;2023-05-27T05:42:33;14.40;99.90
20827;DHT22;10574;52.508;13.236;2023-05-27T05:45:03;14.30;99.90
20827;DHT22;10574;52.508;13.236;2023-05-27T05:47:31;14.30;99.90
20827;DHT22;10574;52.508;13.236;2023-05-27T05:50:00;14.10;99.90
20827;DHT22;10574;52.508;13.236;2023-05-27T05:52:28;14.10;99.90
20827;DHT22;10574;52.508;13.236;2023-05-27T05:54:56;14.10;99.90
20827;DHT22;10574;52.508;13.236;2023-05-27T05:57:24;14.00;99.90
20827;DHT22;10574;52.508;13.236;2023-05-27T05:59:51;14.50;99.90
20827;DHT22;10574;52.508;13.236;2023-05-27T06:02:19;14.70;99.90
20827;DHT22;10574;52.508;13.236;2023-05-27T06:04:47;15.10;99.90
20827;DHT22;10574;52.508;13.236;2023-05-27T06:07:20;15.30;99.90
20827;DHT22;10574;52.508;13.236;2023-05-27T06:09:48;15.50;99.90
20827;DHT22;10574;52.508;13.236;2023-05-27T06:12:16;15.90;99.90
20827;DHT22;10574;52.508;13.236;2023-05-27T06:14:44;16.10;99.90
20827;DHT22;10574;52.508;13.236;2023-05-27T06:17:13;16.70;99.90
20827;DHT22;10574;52.508;13.236;2023-05-27T06:19:41;16.90;99.90
20827;DHT22;10574;52.508;13.236;2023-05-27T06:22:09;17.00;99.90
20827;DHT22;10574;52.508;13.236;2023-05-27T06:24:37;17.20;99.90
20827;DHT22;10574;52.508;13.236;2023-05-27T06:27:05;17.20;99.90
20827;DHT22;10574;52.508;13.236;2023-05-27T06:29:33;17.20;99.90
20827;DHT22;10574;52.508;13.236;2023-05-27T06:32:01;16.70;99.90
20827;DHT22;10574;52.508;13.236;2023-05-27T06:34:29;16.70;99.90
20827;DHT22;10574;52.508;13.236;2023-05-27T06:36:56;16.30;99.90
20827;DHT22;10574;52.508;13.236;2023-05-27T06:39:24;16.50;99.90
20827;DHT22;10574;52.508;13.236;2023-05-27T06:41:52;16.70;99.90
20827;DHT22;10574;52.508;13.236;2023-05-27T06:44:19;17.10;99.90
20827;DHT22;10574;52.508;13.236;2023-05-27T06:46:47;17.40;99.90
20827;DHT22;10574;52.508;13.236;2023-05-27T06:49:15;17.40;99.90
20827;DHT22;10574;52.508;13.236;2023-05-27T06:51:42;17.10;99.90
20827;DHT22;10574;52.508;13.236;2023-05-27T06:54:10;17.30;99.90
20827;DHT22;10574;52.508;13.236;2023-05-27T06:56:38;17.00;99.90
20827;DHT22;10574;52.508;13.236;2023-05-27T06:59:06;17.30;98.90
20827;DHT22;10574;52.508;13.236;2023-05-27T07:01:34;16.80;99.20
20827;DHT22;10574;52.508;13.236;2023-05-27T07:04:02;16.80;95.70
20827;DHT22;10574;52.508;13.236;2023-05-27T07:06:30;16.70;96.90
20827;DHT22;10574;52.508;13.236;2023-05-27T07:08:57;16.70;97.00
20827;DHT22;10574;52.508;13.236;2023-05-27T07:11:25;17.40;96.20
20827;DHT22;10574;52.508;13.236;2023-05-27T07:13:53;17.90;95.30
20827;DHT22;10574;52.508;13.236;2023-05-27T07:16:20;17.80;91.40
20827;DHT22;10574;52.508;13.236;2023-05-27T07:18:48;16.90;93.30
20827;DHT22;10574;52.508;13.236;2023-05-27T07:21:16;17.00;91.60
20827;DHT22;10574;52.508;13.236;2023-05-27T07:23:43;17.30;91.60
20827;DHT22;10574;52.508;13.236;2023-05-27T07:26:11;17.90;90.00
20827;DHT22;10574;52.508;13.236;2023-05-27T07:28:39;18.20;88.00
20827;DHT22;10574;52.508;13.236;2023-05-27T07:31:06;18.40;87.10
20827;DHT22;10574;52.508;13.236;2023-05-27T07:33:34;17.90;82.50
20827;DHT22;10574;52.508;13.236;2023-05-27T07:36:02;17.90;80.60
20827;DHT22;10574;52.508;13.236;2023-05-27T07:38:30;17.80;80.50
20827;DHT22;10574;52.508;13.236;2023-05-27T07:40:58;17.80;80.40
20827;DHT22;10574;52.508;13.236;2023-05-27T07:43:26;18.30;79.60
20827;DHT22;10574;52.508;13.236;2023-05-27T07:45:53;18.70;79.90
20827;DHT22;10574;52.508;13.236;2023-05-27T07:48:22;19.50;75.00
20827;DHT22;10574;52.508;13.236;2023-05-27T07:50:49;19.90;73.90
20827;DHT22;10574;52.508;13.236;2023-05-27T07:53:17;20.10;73.00
20827;DHT22;10574;52.508;13.236;2023-05-27T07:55:45;20.00;70.10
20827;DHT22;10574;52.508;13.236;2023-05-27T07:58:13;18.70;71.20
20827;DHT22;10574;52.508;13.236;2023-05-27T08:00:43;18.40;73.50
20827;DHT22;10574;52.508;13.236;2023-05-27T08:03:10;18.60;73.00
20827;DHT22;10574;52.508;13.236;2023-05-27T08:05:38;18.30;73.80
20827;DHT22;10574;52.508;13.236;2023-05-27T08:08:06;18.60;75.50
20827;DHT22;10574;52.508;13.236;2023-05-27T08:10:34;19.20;75.10
20827;DHT22;10574;52.508;13.236;2023-05-27T08:13:01;19.40;71.70
20827;DHT22;10574;52.508;13.236;2023-05-27T08:15:29;19.40;71.30
20827;DHT22;10574;52.508;13.236;2023-05-27T08:17:57;19.40;68.60
20827;DHT22;10574;52.508;13.236;2023-05-27T08:20:25;19.50;67.60
20827;DHT22;10574;52.508;13.236;2023-05-27T08:22:53;19.90;67.30
20827;DHT22;10574;52.508;13.236;2023-05-27T08:25:21;20.30;66.00
20827;DHT22;10574;52.508;13.236;2023-05-27T08:27:56;20.60;63.20
20827;DHT22;10574;52.508;13.236;2023-05-27T08:30:25;20.50;62.10
20827;DHT22;10574;52.508;13.236;2023-05-27T08:32:53;20.10;62.60
20827;DHT22;10574;52.508;13.236;2023-05-27T08:35:20;20.00;65.10
20827;DHT22;10574;52.508;13.236;2023-05-27T08:37:48;20.30;65.10
20827;DHT22;10574;52.508;13.236;2023-05-27T08:40:18;20.50;60.30
20827;DHT22;10574;52.508;13.236;2023-05-27T08:42:49;19.30;59.50
20827;DHT22;10574;52.508;13.236;2023-05-27T08:45:17;18.00;60.40
20827;DHT22;10574;52.508;13.236;2023-05-27T08:47:45;17.80;63.30
20827;DHT22;10574;52.508;13.236;2023-05-27T08:50:14;18.30;64.30
20827;DHT22;10574;52.508;13.236;2023-05-27T08:52:49;18.70;62.00
20827;DHT22;10574;52.508;13.236;2023-05-27T08:55:19;18.20;60.50
20827;DHT22;10574;52.508;13.236;2023-05-27T08:57:54;18.20;61.40
20827;DHT22;10574;52.508;13.236;2023-05-27T09:00:22;18.50;63.50
20827;DHT22;10574;52.508;13.236;2023-05-27T09:02:50;18.90;63.00
20827;DHT22;10574;52.508;13.236;2023-05-27T09:05:18;18.20;64.00
20827;DHT22;10574;52.508;13.236;2023-05-27T09:07:46;18.70;65.90
20827;DHT22;10574;52.508;13.236;2023-05-27T09:10:15;19.50;65.30
20827;DHT22;10574;52.508;13.236;2023-05-27T09:12:44;20.20;65.00
20827;DHT22;10574;52.508;13.236;2023-05-27T09:15:12;20.50;60.50
20827;DHT22;10574;52.508;13.236;2023-05-27T09:17:42;20.50;60.60
20827;DHT22;10574;52.508;13.236;2023-05-27T09:20:10;20.00;60.30
20827;DHT22;10574;52.508;13.236;2023-05-27T09:22:39;19.90;61.20
20827;DHT22;10574;52.508;13.236;2023-05-27T09:25:08;19.90;61.60
20827;DHT22;10574;52.508;13.236;2023-05-27T09:27:36;20.00;61.40
20827;DHT22;10574;52.508;13.236;2023-05-27T09:30:11;19.70;63.00
20827;DHT22;10574;52.508;13.236;2023-05-27T09:32:39;19.60;62.30
20827;DHT22;10574;52.508;13.236;2023-05-27T09:35:07;19.40;63.20
20827;DHT22;10574;52.508;13.236;2023-05-27T09:37:35;19.60;62.60
20827;DHT22;10574;52.508;13.236;2023-05-27T09:40:13;19.40;63.50
20827;DHT22;10574;52.508;13.236;2023-05-27T09:42:42;19.40;64.50
20827;DHT22;10574;52.508;13.236;2023-05-27T09:45:19;19.70;63.10
20827;DHT22;10574;52.508;13.236;2023-05-27T09:47:52;20.10;63.10
20827;DHT22;10574;52.508;13.236;2023-05-27T09:50:21;20.50;62.00
20827;DHT22;10574;52.508;13.236;2023-05-27T09:52:49;20.30;61.40
20827;DHT22;10574;52.508;13.236;2023-05-27T09:55:17;19.80;62.40
20827;DHT22;10574;52.508;13.236;2023-05-27T09:57:45;19.80;61.40
20827;DHT22;10574;52.508;13.236;2023-05-27T10:00:13;19.50;62.00
20827;DHT22;10574;52.508;13.236;2023-05-27T10:02:48;19.50;63.80
20827;DHT22;10574;52.508;13.236;2023-05-27T10:05:17;19.90;62.80
20827;DHT22;10574;52.508;13.236;2023-05-27T10:07:46;20.60;62.70
20827;DHT22;10574;52.508;13.236;2023-05-27T10:10:18;21.00;59.30
20827;DHT22;10574;52.508;13.236;2023-05-27T10:12:48;21.20;60.20
20827;DHT22;10574;52.508;13.236;2023-05-27T10:15:27;21.00;60.00
20827;DHT22;10574;52.508;13.236;2023-05-27T10:18:01;20.60;59.80
20827;DHT22;10574;52.508;13.236;2023-05-27T10:20:38;20.30;60.20
20827;DHT22;10574;52.508;13.236;2023-05-27T10:23:21;20.50;60.40
20827;DHT22;10574;52.508;13.236;2023-05-27T10:25:56;20.30;59.70
20827;DHT22;10574;52.508;13.236;2023-05-27T10:28:30;20.40;60.00
20827;DHT22;10574;52.508;13.236;2023-05-27T10:31:10;20.20;60.10
20827;DHT22;10574;52.508;13.236;2023-05-27T10:33:37;19.90;61.30
20827;DHT22;10574;52.508;13.236;2023-05-27T10:36:07;20.20;60.60
20827;DHT22;10574;52.508;13.236;2023-05-27T10:38:36;20.50;61.50
20827;DHT22;10574;52.508;13.236;2023-05-27T10:41:05;20.60;60.10
20827;DHT22;10574;52.508;13.236;2023-05-27T10:43:33;20.60;60.90
20827;DHT22;10574;52.508;13.236;2023-05-27T10:46:09;20.60;59.40
20827;DHT22;10574;52.508;13.236;2023-05-27T10:48:38;20.30;60.20
20827;DHT22;10574;52.508;13.236;2023-05-27T10:51:09;20.60;60.30
20827;DHT22;10574;52.508;13.236;2023-05-27T10:53:37;20.80;59.90
20827;DHT22;10574;52.508;13.236;2023-05-27T10:56:05;21.10;59.90
20827;DHT22;10574;52.508;13.236;2023-05-27T10:58:36;21.50;60.00
20827;DHT22;10574;52.508;13.236;2023-05-27T11:01:11;21.70;58.00
20827;DHT22;10574;52.508;13.236;2023-05-27T11:03:44;22.00;58.30
20827;DHT22;10574;52.508;13.236;2023-05-27T11:06:12;22.10;57.50
20827;DHT22;10574;52.508;13.236;2023-05-27T11:08:41;21.60;58.20
20827;DHT22;10574;52.508;13.236;2023-05-27T11:11:11;21.60;58.00
20827;DHT22;10574;52.508;13.236;2023-05-27T11:13:43;21.60;58.50
20827;DHT22;10574;52.508;13.236;2023-05-27T11:16:13;21.40;57.80
20827;DHT22;10574;52.508;13.236;2023-05-27T11:18:46;21.20;59.00
20827;DHT22;10574;52.508;13.236;2023-05-27T11:21:15;21.00;59.00
20827;DHT22;10574;52.508;13.236;2023-05-27T11:23:47;21.20;59.10
20827;DHT22;10574;52.508;13.236;2023-05-27T11:26:16;21.10;58.90
20827;DHT22;10574;52.508;13.236;2023-05-27T11:28:59;21.30;59.00
20827;DHT22;10574;52.508;13.236;2023-05-27T11:31:30;21.80;58.10
20827;DHT22;10574;52.508;13.236;2023-05-27T11:33:58;22.30;58.10
20827;DHT22;10574;52.508;13.236;2023-05-27T11:36:27;21.80;56.60
20827;DHT22;10574;52.508;13.236;2023-05-27T11:39:00;21.40;58.00
20827;DHT22;10574;52.508;13.236;2023-05-27T11:41:32;21.10;57.10
20827;DHT22;10574;52.508;13.236;2023-05-27T11:44:06;21.00;57.40
20827;DHT22;10574;52.508;13.236;2023-05-27T11:46:38;21.20;57.60
20827;DHT22;10574;52.508;13.236;2023-05-27T11:49:07;21.80;57.60
20827;DHT22;10574;52.508;13.236;2023-05-27T11:51:37;21.60;56.30
20827;DHT22;10574;52.508;13.236;2023-05-27T11:54:06;21.40;57.60
20827;DHT22;10574;52.508;13.236;2023-05-27T11:56:34;21.60;58.70
20827;DHT22;10574;52.508;13.236;2023-05-27T11:59:02;21.70;57.60
20827;DHT22;10574;52.508;13.236;2023-05-27T12:01:30;22.10;56.30
20827;DHT22;10574;52.508;13.236;2023-05-27T12:03:57;22.00;56.50
20827;DHT22;10574;52.508;13.236;2023-05-27T12:06:25;22.20;56.90
20827;DHT22;10574;52.508;13.236;2023-05-27T12:08:53;22.10;56.20
20827;DHT22;10574;52.508;13.236;2023-05-27T12:11:20;21.60;55.10
20827;DHT22;10574;52.508;13.236;2023-05-27T12:13:48;21.00;56.60
20827;DHT22;10574;52.508;13.236;2023-05-27T12:16:17;21.50;56.60
20827;DHT22;10574;52.508;13.236;2023-05-27T12:18:45;20.70;56.60
20827;DHT22;10574;52.508;13.236;2023-05-27T12:21:14;20.60;57.40
20827;DHT22;10574;52.508;13.236;2023-05-27T12:23:42;21.00;56.70
20827;DHT22;10574;52.508;13.236;2023-05-27T12:26:11;21.40;57.20
20827;DHT22;10574;52.508;13.236;2023-05-27T12:28:39;21.90;56.10
20827;DHT22;10574;52.508;13.236;2023-05-27T12:31:07;22.10;55.00
20827;DHT22;10574;52.508;13.236;2023-05-27T12:33:35;22.30;54.70
20827;DHT22;10574;52.508;13.236;2023-05-27T12:36:03;22.10;54.70
20827;DHT22;10574;52.508;13.236;2023-05-27T12:38:34;21.70;54.20
20827;DHT22;10574;52.508;13.236;2023-05-27T12:41:02;21.60;54.90
20827;DHT22;10574;52.508;13.236;2023-05-27T12:43:29;21.30;55.30
20827;DHT22;10574;52.508;13.236;2023-05-27T12:45:57;21.20;56.10
20827;DHT22;10574;52.508;13.236;2023-05-27T12:48:26;20.70;55.60
20827;DHT22;10574;52.508;13.236;2023-05-27T12:50:53;21.10;55.30
20827;DHT22;10574;52.508;13.236;2023-05-27T12:53:21;21.50;56.10
20827;DHT22;10574;52.508;13.236;2023-05-27T12:55:49;21.10;56.30
20827;DHT22;10574;52.508;13.236;2023-05-27T12:58:16;21.60;55.80
20827;DHT22;10574;52.508;13.236;2023-05-27T13:00:44;21.80;55.60
20827;DHT22;10574;52.508;13.236;2023-05-27T13:03:12;21.90;56.80
20827;DHT22;10574;52.508;13.236;2023-05-27T13:05:39;22.00;57.10
20827;DHT22;10574;52.508;13.236;2023-05-27T13:08:07;21.50;56.10
20827;DHT22;10574;52.508;13.236;2023-05-27T13:10:35;21.70;56.50
20827;DHT22;10574;52.508;13.236;2023-05-27T13:13:03;22.00;56.60
20827;DHT22;10574;52.508;13.236;2023-05-27T13:15:30;21.50;56.60
20827;DHT22;10574;52.508;13.236;2023-05-27T13:17:58;21.80;56.10
20827;DHT22;10574;52.508;13.236;2023-05-27T13:20:28;21.90;56.40
20827;DHT22;10574;52.508;13.236;2023-05-27T13:22:56;22.10;57.30
20827;DHT22;10574;52.508;13.236;2023-05-27T13:25:27;22.30;56.20
20827;DHT22;10574;52.508;13.236;2023-05-27T13:27:55;22.40;57.10
20827;DHT22;10574;52.508;13.236;2023-05-27T13:30:23;22.40;57.00
20827;DHT22;10574;52.508;13.236;2023-05-27T13:32:51;22.50;57.20
20827;DHT22;10574;52.508;13.236;2023-05-27T13:35:19;22.70;57.10
20827;DHT22;10574;52.508;13.236;2023-05-27T13:37:47;22.40;56.70
20827;DHT22;10574;52.508;13.236;2023-05-27T13:40:15;21.80;57.70
20827;DHT22;10574;52.508;13.236;2023-05-27T13:42:43;22.10;58.30
20827;DHT22;10574;52.508;13.236;2023-05-27T13:45:11;22.30;57.80
20827;DHT22;10574;52.508;13.236;2023-05-27T13:47:38;22.00;58.30
20827;DHT22;10574;52.508;13.236;2023-05-27T13:50:08;21.70;58.70
20827;DHT22;10574;52.508;13.236;2023-05-27T13:52:36;21.90;57.40
20827;DHT22;10574;52.508;13.236;2023-05-27T13:55:04;22.30;56.80
20827;DHT22;10574;52.508;13.236;2023-05-27T13:57:32;21.70;58.70
20827;DHT22;10574;52.508;13.236;2023-05-27T14:00:00;21.80;58.40
20827;DHT22;10574;52.508;13.236;2023-05-27T14:02:27;21.80;58.80
20827;DHT22;10574;52.508;13.236;2023-05-27T14:04:55;22.40;57.90
20827;DHT22;10574;52.508;13.236;2023-05-27T14:07:23;22.60;58.10
20827;DHT22;10574;52.508;13.236;2023-05-27T14:09:50;22.90;56.00
20827;DHT22;10574;52.508;13.236;2023-05-27T14:12:18;23.00;55.80
20827;DHT22;10574;52.508;13.236;2023-05-27T14:14:46;23.40;55.50
20827;DHT22;10574;52.508;13.236;2023-05-27T14:17:13;23.50;55.00
20827;DHT22;10574;52.508;13.236;2023-05-27T14:19:41;23.80;54.50
20827;DHT22;10574;52.508;13.236;2023-05-27T14:22:08;23.50;54.60
20827;DHT22;10574;52.508;13.236;2023-05-27T14:24:36;23.40;54.70
20827;DHT22;10574;52.508;13.236;2023-05-27T14:27:04;22.90;54.50
20827;DHT22;10574;52.508;13.236;2023-05-27T14:29:33;23.00;55.60
20827;DHT22;10574;52.508;13.236;2023-05-27T14:32:01;23.60;55.60
20827;DHT22;10574;52.508;13.236;2023-05-27T14:34:28;23.80;53.70
20827;DHT22;10574;52.508;13.236;2023-05-27T14:36:56;23.70;53.50
20827;DHT22;10574;52.508;13.236;2023-05-27T14:39:24;23.60;54.00
20827;DHT22;10574;52.508;13.236;2023-05-27T14:41:51;23.40;53.70
20827;DHT22;10574;52.508;13.236;2023-05-27T14:44:19;23.70;54.30
20827;DHT22;10574;52.508;13.236;2023-05-27T14:46:47;22.80;54.20
20827;DHT22;10574;52.508;13.236;2023-05-27T14:49:16;22.70;54.80
20827;DHT22;10574;52.508;13.236;2023-05-27T14:51:44;22.90;54.40
20827;DHT22;10574;52.508;13.236;2023-05-27T14:54:12;22.70;55.00
20827;DHT22;10574;52.508;13.236;2023-05-27T14:56:40;22.50;54.70
20827;DHT22;10574;52.508;13.236;2023-05-27T14:59:07;22.60;55.60
20827;DHT22;10574;52.508;13.236;2023-05-27T15:01:35;22.50;55.30
20827;DHT22;10574;52.508;13.236;2023-05-27T15:04:03;22.30;55.00
20827;DHT22;10574;52.508;13.236;2023-05-27T15:06:31;22.20;56.70
20827;DHT22;10574;52.508;13.236;2023-05-27T15:08:59;22.60;56.10
20827;DHT22;10574;52.508;13.236;2023-05-27T15:11:27;22.80;55.90
20827;DHT22;10574;52.508;13.236;2023-05-27T15:13:55;22.40;55.60
20827;DHT22;10574;52.508;13.236;2023-05-27T15:16:23;22.40;56.20
20827;DHT22;10574;52.508;13.236;2023-05-27T15:18:50;22.10;56.30
20827;DHT22;10574;52.508;13.236;2023-05-27T15:21:18;22.00;56.40
20827;DHT22;10574;52.508;13.236;2023-05-27T15:23:47;22.40;55.80
20827;DHT22;10574;52.508;13.236;2023-05-27T15:26:14;22.40;56.20
20827;DHT22;10574;52.508;13.236;2023-05-27T15:28:42;22.00;55.60
20827;DHT22;10574;52.508;13.236;2023-05-27T15:31:09;22.10;55.90
20827;DHT22;10574;52.508;13.236;2023-05-27T15:33:37;22.30;56.60
20827;DHT22;10574;52.508;13.236;2023-05-27T15:36:05;22.70;55.50